Time;durP1;ratioP1;P1;durP2;ratioP2;P2;SDS_P1;SDS_P2;PMS_P1;PMS_P2;Temp;Humidity;BMP_temperature;BMP_pressure;BME280_temperature;BME280_humidity;BME280_pressure;Samples;Min_cycle;Max_cycle;Signal;HPM_P1;HPM_P2
2024/02/18 00:02:23;;;;;;;5.05;2.00;;;24.30;52.70;;;;;;6152197;28;80660;-49
2024/02/18 00:05:24;;;;;;;2.55;1.55;;;24.30;52.60;;;;;;6145630;28;80801;-49
2024/02/18 00:08:24;;;;;;;2.33;1.40;;;24.30;52.30;;;;;;6148555;28;81019;-51
2024/02/18 00:11:25;;;;;;;1.85;1.40;;;24.30;52.40;;;;;;6153789;28;80735;-51
2024/02/18 00:14:26;;;;;;;3.40;1.73;;;24.30;52.40;;;;;;6140300;28;83263;-49
2024/02/18 00:17:26;;;;;;;1.85;1.60;;;24.30;52.30;;;;;;6142453;28;80778;-49
2024/02/18 00:20:27;;;;;;;2.58;1.65;;;24.30;52.00;;;;;;6138168;28;81220;-49
2024/02/18 00:23:28;;;;;;;2.97;1.70;;;24.30;52.00;;;;;;6164239;28;81198;-49
2024/02/18 00:26:29;;;;;;;2.60;1.42;;;24.30;52.10;;;;;;6156055;28;80846;-52
2024/02/18 00:29:30;;;;;;;2.25;1.38;;;24.30;52.00;;;;;;6170728;28;82480;-49
2024/02/18 00:32:31;;;;;;;1.95;1.45;;;24.30;51.70;;;;;;6162054;28;81364;-51
2024/02/18 00:35:32;;;;;;;1.98;1.42;;;24.30;51.40;;;;;;6167567;28;81315;-50
2024/02/18 00:38:32;;;;;;;2.10;1.58;;;24.20;51.30;;;;;;6173787;28;80987;-51
2024/02/18 00:41:33;;;;;;;2.50;1.95;;;24.20;51.40;;;;;;6170542;28;80666;-50
2024/02/18 00:44:34;;;;;;;5.55;1.83;;;24.20;50.80;;;;;;6150163;28;82440;-47
2024/02/18 00:47:34;;;;;;;2.90;1.55;;;24.20;50.40;;;;;;6167114;28;80491;-65
2024/02/18 00:50:36;;;;;;;1.90;1.30;;;24.10;50.30;;;;;;6161911;28;81179;-67
2024/02/18 00:53:37;;;;;;;3.25;1.42;;;24.20;50.80;;;;;;6168533;28;81613;-66
2024/02/18 00:56:37;;;;;;;1.98;1.40;;;24.20;50.50;;;;;;6166514;28;80561;-68
2024/02/18 00:59:38;;;;;;;2.03;1.50;;;24.20;50.70;;;;;;6161744;28;81866;-67
2024/02/18 01:02:38;;;;;;;2.67;1.77;;;24.20;50.30;;;;;;6160668;28;80779;-67
2024/02/18 01:05:39;;;;;;;2.80;1.90;;;24.20;50.30;;;;;;6169596;28;80491;-68
2024/02/18 01:08:40;;;;;;;1.98;1.38;;;24.20;50.40;;;;;;6152302;28;80621;-68
2024/02/18 01:11:40;;;;;;;1.42;1.30;;;24.20;50.10;;;;;;6152719;28;87804;-67
2024/02/18 01:14:41;;;;;;;1.42;1.30;;;24.20;50.10;;;;;;6154001;28;80945;-66
2024/02/18 01:17:41;;;;;;;2.00;1.40;;;24.20;50.10;;;;;;6153195;28;80387;-65
2024/02/18 01:20:42;;;;;;;2.65;1.50;;;24.20;50.00;;;;;;6155195;28;80804;-64
2024/02/18 01:23:43;;;;;;;2.35;1.52;;;24.20;50.10;;;;;;6157377;28;81084;-49
2024/02/18 01:26:43;;;;;;;2.40;1.45;;;24.20;50.10;;;;;;6155909;28;80276;-51
2024/02/18 01:29:44;;;;;;;2.17;1.42;;;24.10;49.70;;;;;;6162511;28;80333;-53
2024/02/18 01:32:44;;;;;;;2.70;1.60;;;24.20;49.70;;;;;;6179239;28;80913;-48
2024/02/18 01:35:45;;;;;;;2.20;1.40;;;24.10;49.70;;;;;;6179740;28;82136;-48
2024/02/18 01:38:46;;;;;;;2.25;1.35;;;24.20;50.50;;;;;;6180578;28;81505;-48
2024/02/18 01:41:46;;;;;;;2.38;1.58;;;24.20;50.40;;;;;;6165343;28;80862;-47
2024/02/18 01:44:47;;;;;;;4.03;1.67;;;24.20;50.00;;;;;;6178194;28;81049;-49
2024/02/18 01:47:47;;;;;;;8.70;1.70;;;24.20;50.00;;;;;;6178848;28;82564;-49
2024/02/18 01:50:48;;;;;;;3.65;2.00;;;24.20;49.90;;;;;;6179212;28;80778;-49
2024/02/18 01:53:48;;;;;;;2.53;1.33;;;24.20;50.00;;;;;;6178277;28;80330;-45
2024/02/18 01:56:49;;;;;;;2.92;1.50;;;24.20;49.90;;;;;;6177541;28;81055;-49
2024/02/18 01:59:49;;;;;;;2.70;1.65;;;24.20;49.90;;;;;;6168048;28;80435;-48
2024/02/18 02:02:50;;;;;;;2.35;1.75;;;24.10;49.60;;;;;;6178936;28;82945;-45
2024/02/18 02:05:50;;;;;;;3.20;1.63;;;24.20;49.30;;;;;;6171222;28;80562;-48
2024/02/18 02:08:52;;;;;;;2.42;1.63;;;24.10;49.20;;;;;;6171880;28;80914;-47
2024/02/18 02:11:53;;;;;;;3.17;1.70;;;24.10;49.20;;;;;;6174252;28;80117;-47
2024/02/18 02:14:53;;;;;;;2.38;1.30;;;24.10;49.30;;;;;;6178697;28;80529;-48
2024/02/18 02:17:54;;;;;;;3.13;1.58;;;24.10;49.20;;;;;;6177352;28;80517;-50
2024/02/18 02:20:54;;;;;;;2.17;1.33;;;24.10;49.00;;;;;;6155377;28;80628;-65
2024/02/18 02:23:55;;;;;;;2.13;1.48;;;24.10;49.30;;;;;;6168814;28;80464;-62
2024/02/18 02:26:55;;;;;;;2.78;1.42;;;24.10;49.10;;;;;;6154475;28;81321;-62
2024/02/18 02:29:56;;;;;;;2.38;1.40;;;24.10;48.90;;;;;;6155596;28;81143;-63
2024/02/18 02:32:57;;;;;;;2.40;1.40;;;24.00;48.80;;;;;;6154612;28;80550;-62
2024/02/18 02:35:57;;;;;;;2.60;1.77;;;24.10;48.50;;;;;;6160162;28;80427;-63
2024/02/18 02:38:58;;;;;;;3.55;1.88;;;24.10;48.70;;;;;;6163493;28;80792;-64
2024/02/18 02:41:59;;;;;;;3.40;1.70;;;24.10;48.90;;;;;;6156352;28;80961;-62
2024/02/18 02:45:00;;;;;;;2.60;1.70;;;24.10;49.10;;;;;;6166692;28;80620;-63
2024/02/18 02:48:01;;;;;;;3.28;1.75;;;24.00;49.50;;;;;;6155877;28;81248;-63
2024/02/18 02:51:01;;;;;;;2.55;1.50;;;24.10;48.80;;;;;;6154909;28;80379;-63
2024/02/18 02:54:02;;;;;;;2.10;1.60;;;24.00;48.80;;;;;;6156458;28;80746;-62
2024/02/18 02:57:02;;;;;;;3.08;1.60;;;24.10;48.80;;;;;;6156015;28;81313;-61
2024/02/18 03:00:09;;;;;;;4.68;1.65;;;24.00;48.70;;;;;;6163062;28;80197;-62
2024/02/18 03:03:09;;;;;;;2.50;1.58;;;24.10;48.80;;;;;;6179326;28;81236;-64
2024/02/18 03:06:10;;;;;;;3.30;1.60;;;24.10;48.80;;;;;;6170561;28;80414;-62
2024/02/18 03:09:12;;;;;;;3.50;2.08;;;24.10;48.60;;;;;;6164297;28;80703;-63
2024/02/18 03:12:12;;;;;;;3.08;1.50;;;24.10;48.40;;;;;;6179294;28;80894;-62
2024/02/18 03:15:13;;;;;;;4.63;1.77;;;24.10;49.00;;;;;;6172037;28;80959;-49
2024/02/18 03:18:14;;;;;;;2.35;1.63;;;24.10;48.70;;;;;;6158915;28;80490;-51
2024/02/18 03:21:14;;;;;;;2.97;1.90;;;24.10;48.80;;;;;;6178028;28;80460;-47
2024/02/18 03:24:15;;;;;;;3.35;1.70;;;24.10;48.60;;;;;;6177322;28;81931;-47
2024/02/18 03:27:17;;;;;;;5.20;1.88;;;24.10;48.80;;;;;;6178811;28;81103;-48
2024/02/18 03:30:18;;;;;;;3.65;1.75;;;24.10;48.40;;;;;;6177868;28;81320;-46
2024/02/18 03:33:18;;;;;;;2.35;1.63;;;24.10;48.30;;;;;;6175251;28;82154;-66
2024/02/18 03:36:19;;;;;;;3.40;1.98;;;24.10;48.10;;;;;;6177071;28;80510;-65
2024/02/18 03:39:19;;;;;;;3.40;1.95;;;24.10;47.90;;;;;;6170930;28;80587;-66
2024/02/18 03:42:20;;;;;;;5.18;1.90;;;24.10;48.10;;;;;;6169467;28;80424;-67
2024/02/18 03:45:20;;;;;;;4.50;2.20;;;24.10;48.00;;;;;;6173314;28;81653;-65
2024/02/18 03:48:21;;;;;;;3.35;1.90;;;24.10;48.00;;;;;;6175954;28;80629;-66
2024/02/18 03:51:21;;;;;;;3.55;1.95;;;24.00;48.00;;;;;;6176463;28;80562;-67
2024/02/18 03:54:22;;;;;;;3.42;2.08;;;24.10;48.50;;;;;;6172450;28;80140;-66
2024/02/18 03:57:22;;;;;;;3.17;1.83;;;24.00;47.90;;;;;;6168491;28;82376;-64
2024/02/18 04:00:23;;;;;;;2.25;1.45;;;24.00;47.90;;;;;;6166713;28;80689;-64
2024/02/18 04:03:23;;;;;;;3.15;1.75;;;24.10;47.90;;;;;;6172595;28;82932;-64
2024/02/18 04:06:24;;;;;;;3.35;1.65;;;24.10;47.90;;;;;;6162817;28;80130;-65
2024/02/18 04:09:24;;;;;;;3.47;1.55;;;24.10;47.90;;;;;;6166700;28;81042;-69
2024/02/18 04:12:25;;;;;;;2.47;1.80;;;24.00;47.80;;;;;;6160676;28;82244;-68
2024/02/18 04:15:26;;;;;;;2.30;1.60;;;24.10;47.70;;;;;;6164346;28;80404;-68
2024/02/18 04:18:26;;;;;;;2.58;1.35;;;24.10;47.70;;;;;;6177123;28;80757;-68
2024/02/18 04:21:26;;;;;;;3.25;1.60;;;24.00;47.70;;;;;;6175990;28;80399;-70
2024/02/18 04:24:27;;;;;;;4.18;2.30;;;24.10;47.60;;;;;;6153943;28;80674;-72
2024/02/18 04:27:28;;;;;;;2.90;1.58;;;24.10;47.90;;;;;;6154300;28;80500;-64
2024/02/18 04:30:28;;;;;;;2.50;1.73;;;24.10;47.60;;;;;;6166501;28;81053;-62
2024/02/18 04:33:29;;;;;;;3.50;1.67;;;24.10;46.90;;;;;;6165619;28;80234;-62
2024/02/18 04:36:29;;;;;;;2.90;1.65;;;24.10;46.80;;;;;;6165781;28;80860;-62
2024/02/18 04:39:30;;;;;;;2.53;1.48;;;24.10;46.60;;;;;;6165586;28;80522;-60
2024/02/18 04:42:30;;;;;;;2.03;1.55;;;24.10;46.70;;;;;;6154786;28;80561;-63
2024/02/18 04:45:31;;;;;;;2.85;1.63;;;24.20;46.80;;;;;;6154346;28;80543;-64
2024/02/18 04:48:31;;;;;;;3.72;1.83;;;24.20;46.70;;;;;;6157650;28;80500;-62
2024/02/18 04:51:32;;;;;;;3.03;1.42;;;24.30;46.60;;;;;;6154658;28;80951;-62
2024/02/18 04:54:35;;;;;;;4.53;1.73;;;24.30;46.60;;;;;;6152228;28;82688;-62
2024/02/18 04:57:36;;;;;;;2.28;1.55;;;24.30;46.50;;;;;;6163982;28;81155;-62
2024/02/18 05:00:36;;;;;;;2.72;1.50;;;24.30;46.40;;;;;;6152773;28;80735;-65
2024/02/18 05:03:37;;;;;;;4.13;2.15;;;24.30;46.40;;;;;;6158810;28;80261;-64
2024/02/18 05:06:38;;;;;;;3.22;1.80;;;24.30;46.40;;;;;;6176400;28;83538;-66
2024/02/18 05:09:39;;;;;;;2.85;1.40;;;24.30;46.30;;;;;;6172915;28;80961;-64
2024/02/18 05:12:39;;;;;;;1.58;1.48;;;24.40;46.20;;;;;;6153572;28;81894;-67
2024/02/18 05:15:40;;;;;;;1.95;1.60;;;24.40;46.10;;;;;;6177080;28;80986;-67
2024/02/18 05:18:40;;;;;;;2.00;1.38;;;24.40;45.90;;;;;;6176704;28;82675;-64
2024/02/18 05:21:42;;;;;;;2.20;1.52;;;24.40;45.90;;;;;;6167090;28;81296;-66
2024/02/18 05:24:42;;;;;;;2.28;1.42;;;24.40;45.80;;;;;;6152176;28;80958;-47
2024/02/18 05:27:43;;;;;;;2.90;1.48;;;24.40;46.10;;;;;;6151832;28;80903;-49
2024/02/18 05:30:43;;;;;;;2.47;1.60;;;24.40;46.60;;;;;;6168312;28;80383;-49
2024/02/18 05:33:44;;;;;;;3.92;1.80;;;24.40;46.10;;;;;;6162818;28;80422;-49
2024/02/18 05:36:44;;;;;;;2.05;1.38;;;24.40;46.20;;;;;;6163353;28;81218;-46
2024/02/18 05:39:45;;;;;;;2.00;1.50;;;24.40;46.40;;;;;;6165303;28;80746;-47
2024/02/18 05:42:45;;;;;;;2.13;1.50;;;24.40;46.50;;;;;;6163764;28;81110;-45
2024/02/18 05:45:46;;;;;;;4.60;1.98;;;24.40;46.20;;;;;;6163823;28;81551;-50
2024/02/18 05:48:46;;;;;;;1.77;1.20;;;24.40;46.10;;;;;;6173975;28;82364;-44
2024/02/18 05:51:47;;;;;;;3.90;1.67;;;24.40;46.60;;;;;;6173959;28;80462;-47
2024/02/18 05:54:47;;;;;;;2.72;1.63;;;24.40;46.50;;;;;;6160315;28;80583;-47
2024/02/18 05:57:48;;;;;;;1.70;1.20;;;24.40;46.50;;;;;;6166961;28;84296;-46
2024/02/18 06:00:48;;;;;;;3.78;1.80;;;24.40;46.10;;;;;;6155190;28;81179;-67
2024/02/18 06:03:49;;;;;;;3.97;1.70;;;24.40;46.00;;;;;;6151396;28;81371;-68
2024/02/18 06:06:49;;;;;;;4.32;2.00;;;24.40;45.90;;;;;;6152966;28;85193;-63
2024/02/18 06:09:50;;;;;;;1.80;1.40;;;24.40;45.50;;;;;;6156032;28;80327;-62
2024/02/18 06:12:50;;;;;;;2.53;1.70;;;24.40;45.70;;;;;;6178927;28;82394;-60
2024/02/18 06:15:51;;;;;;;3.08;1.60;;;24.40;45.40;;;;;;6175589;28;80859;-62
2024/02/18 06:18:51;;;;;;;3.17;1.58;;;24.30;45.10;;;;;;6165544;28;82444;-46
2024/02/18 06:21:52;;;;;;;1.60;1.30;;;24.30;45.00;;;;;;6168074;28;81128;-46
2024/02/18 06:24:52;;;;;;;7.80;2.13;;;24.30;45.40;;;;;;6163926;28;80315;-49
2024/02/18 06:27:53;;;;;;;2.67;1.70;;;24.30;45.50;;;;;;6172294;28;80697;-54
2024/02/18 06:30:54;;;;;;;7.60;1.40;;;24.30;45.80;;;;;;6171418;28;80433;-49
2024/02/18 06:33:54;;;;;;;2.85;1.73;;;24.30;46.30;;;;;;6173344;28;83432;-51
2024/02/18 06:36:55;;;;;;;3.33;2.10;;;24.30;46.10;;;;;;6174808;28;81469;-59
2024/02/18 06:39:55;;;;;;;2.40;1.70;;;24.30;45.80;;;;;;6169068;28;81659;-59
2024/02/18 06:42:57;;;;;;;13.85;2.50;;;24.30;46.40;;;;;;6174266;28;80459;-56
2024/02/18 06:45:57;;;;;;;3.00;1.65;;;24.30;46.50;;;;;;6166627;28;83209;-56
2024/02/18 06:48:58;;;;;;;5.70;1.73;;;24.30;46.50;;;;;;6162516;28;80988;-57
2024/02/18 06:51:58;;;;;;;6.53;2.00;;;24.30;46.60;;;;;;6161238;28;81070;-58
2024/02/18 06:54:59;;;;;;;3.90;1.85;;;24.30;46.90;;;;;;6172231;28;80068;-59
2024/02/18 06:57:59;;;;;;;5.68;1.95;;;24.30;46.80;;;;;;6170671;28;80267;-57
2024/02/18 07:01:00;;;;;;;38.22;3.53;;;24.30;47.60;;;;;;6152273;28;80220;-59
2024/02/18 07:04:01;;;;;;;4.60;1.73;;;24.30;46.90;;;;;;6162459;28;81323;-58
2024/02/18 07:07:01;;;;;;;3.53;1.77;;;24.40;47.00;;;;;;6161162;28;80498;-59
2024/02/18 07:10:02;;;;;;;2.78;1.90;;;24.40;47.20;;;;;;6154573;28;80049;-62
2024/02/18 07:13:02;;;;;;;4.00;1.42;;;24.40;47.20;;;;;;6154345;28;84270;-51
2024/02/18 07:16:03;;;;;;;3.90;1.75;;;24.40;47.90;;;;;;6156711;28;81688;-52
2024/02/18 07:19:04;;;;;;;2.03;1.40;;;24.40;48.00;;;;;;6176811;28;80340;-50
2024/02/18 07:22:06;;;;;;;2.45;1.60;;;24.40;48.20;;;;;;6161830;28;81181;-51
2024/02/18 07:25:07;;;;;;;4.90;1.95;;;24.40;48.10;;;;;;6170487;28;80107;-49
2024/02/18 07:28:07;;;;;;;5.10;1.75;;;24.40;48.70;;;;;;6167831;28;81314;-48
2024/02/18 07:31:08;;;;;;;3.30;1.65;;;24.50;48.50;;;;;;6166427;28;81979;-62
2024/02/18 07:34:08;;;;;;;3.28;1.80;;;24.40;48.80;;;;;;6169508;28;81030;-59
2024/02/18 07:37:10;;;;;;;3.13;1.80;;;24.50;48.00;;;;;;6173021;28;80277;-59
2024/02/18 07:40:11;;;;;;;3.47;1.90;;;24.40;47.80;;;;;;6174030;28;80081;-65
2024/02/18 07:43:11;;;;;;;3.90;1.60;;;24.40;46.20;;;;;;6175449;28;80904;-61
2024/02/18 07:46:12;;;;;;;4.30;1.80;;;24.40;46.70;;;;;;6168157;28;80393;-60
2024/02/18 07:49:15;;;;;;;7.50;1.70;;;24.40;46.50;;;;;;6170072;28;80505;-59
2024/02/18 07:52:16;;;;;;;7.07;2.10;;;24.40;46.30;;;;;;6169207;28;83611;-58
2024/02/18 07:55:16;;;;;;;7.80;1.88;;;24.40;47.00;;;;;;6169959;28;81833;-58
2024/02/18 07:58:17;;;;;;;17.20;2.33;;;24.40;46.90;;;;;;6166593;28;80377;-62
2024/02/18 08:01:17;;;;;;;5.43;1.73;;;24.40;47.30;;;;;;6152653;28;80505;-60
2024/02/18 08:04:18;;;;;;;6.00;1.77;;;24.40;47.40;;;;;;6164981;28;80346;-64
2024/02/18 08:07:23;;;;;;;4.10;1.92;;;24.40;47.50;;;;;;6154074;28;81558;-51
2024/02/18 08:10:23;;;;;;;8.75;2.05;;;24.40;47.60;;;;;;6157618;28;85876;-53
2024/02/18 08:13:24;;;;;;;4.47;1.52;;;24.40;47.50;;;;;;6156198;28;80456;-51
2024/02/18 08:16:28;;;;;;;6.07;2.10;;;24.50;47.50;;;;;;6156460;28;81038;-49
2024/02/18 08:19:31;;;;;;;3.53;1.50;;;24.50;47.90;;;;;;6158724;28;80964;-52
2024/02/18 08:22:31;;;;;;;3.72;1.75;;;24.50;47.70;;;;;;6160482;28;80589;-53
2024/02/18 08:25:32;;;;;;;4.55;1.65;;;24.50;47.60;;;;;;6173857;28;81582;-51
2024/02/18 08:28:33;;;;;;;4.65;1.60;;;24.50;47.90;;;;;;6171370;28;81056;-62
2024/02/18 08:31:33;;;;;;;6.00;2.00;;;24.40;47.60;;;;;;6145179;28;82208;-64
2024/02/18 08:34:34;;;;;;;4.13;2.10;;;24.40;47.80;;;;;;6144690;28;81629;-60
2024/02/18 08:37:34;;;;;;;7.07;2.38;;;24.50;47.70;;;;;;6151026;28;81334;-61
2024/02/18 08:40:34;;;;;;;5.03;2.10;;;24.50;47.50;;;;;;6149387;28;82388;-61
2024/02/18 08:43:35;;;;;;;4.78;1.85;;;24.60;47.50;;;;;;6150826;28;81992;-62
2024/02/18 08:46:35;;;;;;;6.43;1.88;;;24.60;47.40;;;;;;6157946;28;81761;-61
2024/02/18 08:49:36;;;;;;;3.67;1.88;;;24.60;47.60;;;;;;6157532;28;81589;-61
2024/02/18 08:52:37;;;;;;;3.83;1.90;;;24.60;47.20;;;;;;6150822;28;83217;-61
2024/02/18 08:55:37;;;;;;;6.50;2.13;;;24.60;47.30;;;;;;6153391;28;80690;-61
2024/02/18 08:58:38;;;;;;;5.13;1.70;;;24.70;47.20;;;;;;6159122;28;81597;-61
2024/02/18 09:01:38;;;;;;;3.95;1.73;;;24.70;47.30;;;;;;6154077;28;82064;-62
2024/02/18 09:04:39;;;;;;;4.38;1.75;;;24.70;47.30;;;;;;6155544;28;83188;-65
2024/02/18 09:07:39;;;;;;;3.72;1.80;;;24.70;47.20;;;;;;6151133;28;81917;-64
2024/02/18 09:10:40;;;;;;;3.45;1.60;;;24.70;47.60;;;;;;6144552;28;81526;-62
2024/02/18 09:13:42;;;;;;;3.65;1.70;;;24.80;47.90;;;;;;6157311;28;83276;-62
2024/02/18 09:16:42;;;;;;;4.53;1.80;;;24.80;47.90;;;;;;6155754;28;81666;-64
2024/02/18 09:19:43;;;;;;;8.20;1.58;;;24.80;47.70;;;;;;6154931;28;86356;-67
2024/02/18 09:22:43;;;;;;;4.30;1.80;;;24.80;47.60;;;;;;6151236;28;82404;-62
2024/02/18 09:25:44;;;;;;;5.18;1.63;;;24.90;47.40;;;;;;6154197;28;81422;-59
2024/02/18 09:28:44;;;;;;;2.70;1.83;;;24.90;47.20;;;;;;6157145;28;81610;-63
2024/02/18 09:31:47;;;;;;;5.05;1.75;;;24.80;47.10;;;;;;6153529;28;81728;-66
2024/02/18 09:34:47;;;;;;;6.35;1.50;;;24.80;47.30;;;;;;6159043;28;81516;-68
2024/02/18 09:37:48;;;;;;;5.82;2.33;;;24.80;47.00;;;;;;6156558;28;81514;-64
2024/02/18 09:40:48;;;;;;;2.83;2.20;;;24.80;46.40;;;;;;6151827;28;81498;-59
2024/02/18 09:43:49;;;;;;;2.85;1.95;;;24.70;45.50;;;;;;6163162;28;81235;-60
2024/02/18 09:46:51;;;;;;;2.92;1.95;;;24.70;45.60;;;;;;6167999;28;81463;-62
2024/02/18 09:49:51;;;;;;;3.50;1.85;;;24.60;44.90;;;;;;6160888;28;80586;-59
2024/02/18 09:52:52;;;;;;;6.13;2.40;;;24.60;44.30;;;;;;6165846;28;80341;-62
2024/02/18 09:55:52;;;;;;;3.60;2.13;;;24.70;43.90;;;;;;6156208;28;80366;-60
2024/02/18 09:58:53;;;;;;;3.45;2.10;;;24.60;43.10;;;;;;6169425;28;80399;-56
2024/02/18 10:01:53;;;;;;;5.82;2.55;;;24.60;42.20;;;;;;6157656;28;82036;-58
2024/02/18 10:04:54;;;;;;;8.90;3.00;;;24.50;41.20;;;;;;6168297;28;80374;-52
2024/02/18 10:07:54;;;;;;;4.13;2.55;;;24.40;40.80;;;;;;6169717;28;80593;-56
2024/02/18 10:10:55;;;;;;;6.63;2.28;;;24.40;40.70;;;;;;6162455;28;81133;-53
2024/02/18 10:13:55;;;;;;;3.35;2.22;;;24.40;40.60;;;;;;6172949;28;80641;-57
2024/02/18 10:16:56;;;;;;;6.22;2.40;;;24.40;40.50;;;;;;6165028;28;80760;-56
2024/02/18 10:19:57;;;;;;;5.07;2.30;;;24.40;40.50;;;;;;6165744;28;80509;-57
2024/02/18 10:22:57;;;;;;;5.97;2.50;;;24.40;40.60;;;;;;6167422;28;80935;-58
2024/02/18 10:25:58;;;;;;;4.88;2.20;;;24.40;40.30;;;;;;6165486;28;80572;-56
2024/02/18 10:28:58;;;;;;;3.72;2.38;;;24.40;40.30;;;;;;6171517;28;81231;-54
2024/02/18 10:31:59;;;;;;;3.20;2.33;;;24.40;40.50;;;;;;6170964;28;80956;-55
2024/02/18 10:35:04;;;;;;;10.80;2.90;;;24.40;40.70;;;;;;6171150;28;80871;-55
2024/02/18 10:38:07;;;;;;;4.18;2.40;;;24.40;40.90;;;;;;6160298;28;81516;-52
2024/02/18 10:41:09;;;;;;;4.93;2.28;;;24.50;40.60;;;;;;6171784;28;80536;-53
2024/02/18 10:44:11;;;;;;;4.85;2.95;;;24.50;41.20;;;;;;6172126;28;80602;-55
2024/02/18 10:47:13;;;;;;;5.70;2.50;;;24.60;41.30;;;;;;6173535;28;80605;-53
2024/02/18 10:50:13;;;;;;;6.95;3.13;;;24.60;41.60;;;;;;6173713;28;81587;-56
2024/02/18 10:53:14;;;;;;;7.55;2.58;;;24.60;41.60;;;;;;6170234;28;80479;-54
2024/02/18 10:56:14;;;;;;;10.75;2.75;;;24.50;41.50;;;;;;6175492;28;81186;-52
2024/02/18 10:59:15;;;;;;;5.82;2.30;;;24.50;41.70;;;;;;6164919;28;80113;-59
2024/02/18 11:02:15;;;;;;;4.28;2.45;;;24.60;42.00;;;;;;6167435;28;83860;-55
2024/02/18 11:05:18;;;;;;;4.57;2.33;;;24.60;42.40;;;;;;6175869;28;80178;-53
2024/02/18 11:08:18;;;;;;;2.97;2.30;;;24.60;43.30;;;;;;6175787;28;82533;-50
2024/02/18 11:11:19;;;;;;;4.90;2.92;;;24.70;43.20;;;;;;6179706;28;80266;-52
2024/02/18 11:14:19;;;;;;;3.75;2.25;;;24.70;43.70;;;;;;6178989;28;80405;-56
2024/02/18 11:17:20;;;;;;;5.47;2.70;;;24.70;44.30;;;;;;6179322;28;80399;-50
2024/02/18 11:20:21;;;;;;;6.03;2.80;;;24.70;44.40;;;;;;6180737;28;86214;-50
2024/02/18 11:23:21;;;;;;;3.97;2.33;;;24.70;44.90;;;;;;6168737;28;81473;-55
2024/02/18 11:26:22;;;;;;;5.13;2.50;;;24.70;45.20;;;;;;6178527;28;81815;-57
2024/02/18 11:29:22;;;;;;;4.78;2.42;;;24.60;45.90;;;;;;6173807;28;81011;-62
2024/02/18 11:32:23;;;;;;;4.43;2.20;;;24.70;45.70;;;;;;6155234;28;80368;-64
2024/02/18 11:35:23;;;;;;;3.90;2.33;;;24.70;46.00;;;;;;6153919;28;80378;-61
2024/02/18 11:38:24;;;;;;;11.35;3.03;;;24.80;45.80;;;;;;6154278;28;81993;-61
2024/02/18 11:41:26;;;;;;;6.53;2.85;;;24.70;43.40;;;;;;6154897;28;81290;-60
2024/02/18 11:44:27;;;;;;;5.82;2.95;;;24.70;44.10;;;;;;6156055;28;81485;-62
2024/02/18 11:47:28;;;;;;;3.88;2.67;;;24.60;43.50;;;;;;6161429;28;80467;-60
2024/02/18 11:50:28;;;;;;;7.40;2.92;;;24.60;42.50;;;;;;6163926;28;81087;-61
2024/02/18 11:53:29;;;;;;;3.83;2.63;;;24.60;41.50;;;;;;6165737;28;81499;-61
2024/02/18 11:56:29;;;;;;;6.68;2.88;;;24.60;40.40;;;;;;6164754;28;80772;-63
2024/02/18 11:59:30;;;;;;;5.35;2.60;;;24.50;40.00;;;;;;6160678;28;81131;-63
2024/02/18 12:02:31;;;;;;;5.75;3.40;;;24.40;39.80;;;;;;6170602;28;80363;-61
2024/02/18 12:05:31;;;;;;;7.13;3.70;;;24.40;39.50;;;;;;6166146;28;80765;-59
2024/02/18 12:08:32;;;;;;;6.25;2.92;;;24.40;39.20;;;;;;6164688;28;80478;-47
2024/02/18 12:11:32;;;;;;;7.82;3.80;;;24.40;39.30;;;;;;6167796;28;81351;-48
2024/02/18 12:14:33;;;;;;;4.45;3.05;;;24.40;38.70;;;;;;6168265;28;80482;-48
2024/02/18 12:17:33;;;;;;;5.28;3.40;;;24.50;38.70;;;;;;6173512;28;80549;-49
2024/02/18 12:20:34;;;;;;;4.38;2.80;;;24.60;38.30;;;;;;6172544;28;81070;-47
2024/02/18 12:23:35;;;;;;;7.88;3.60;;;24.60;38.00;;;;;;6158443;28;81169;-49
2024/02/18 12:26:35;;;;;;;6.47;3.03;;;24.60;38.10;;;;;;6174660;28;80424;-62
2024/02/18 12:29:36;;;;;;;4.10;2.88;;;24.50;37.20;;;;;;6157991;28;80784;-59
2024/02/18 12:32:36;;;;;;;5.40;3.38;;;24.60;36.80;;;;;;6154879;28;81119;-59
2024/02/18 12:35:37;;;;;;;5.95;3.03;;;24.60;36.80;;;;;;6155178;28;82373;-62
2024/02/18 12:38:37;;;;;;;6.25;2.97;;;24.60;36.60;;;;;;6152365;28;83280;-61
2024/02/18 12:41:38;;;;;;;6.40;3.35;;;24.70;36.30;;;;;;6179753;28;80525;-61
2024/02/18 12:44:38;;;;;;;7.88;3.42;;;24.70;36.10;;;;;;6153888;28;81773;-50
2024/02/18 12:47:39;;;;;;;7.10;3.63;;;24.70;35.70;;;;;;6153045;28;80529;-46
2024/02/18 12:50:39;;;;;;;18.85;3.50;;;24.70;34.90;;;;;;6154986;28;80712;-52
2024/02/18 12:53:40;;;;;;;10.27;3.63;;;24.80;35.00;;;;;;6160836;28;80320;-49
2024/02/18 12:56:40;;;;;;;5.88;3.83;;;24.80;35.10;;;;;;6160445;28;85098;-48
2024/02/18 12:59:41;;;;;;;4.60;2.97;;;24.80;35.40;;;;;;6151807;28;80704;-49
2024/02/18 13:02:46;;;;;;;6.05;3.03;;;24.80;35.20;;;;;;6145696;28;82186;-50
2024/02/18 13:05:48;;;;;;;6.25;4.03;;;24.80;34.90;;;;;;6161793;28;80361;-49
2024/02/18 13:08:48;;;;;;;4.47;3.15;;;24.80;35.10;;;;;;6161058;28;81774;-48
2024/02/18 13:11:49;;;;;;;5.13;3.13;;;24.90;35.00;;;;;;6148799;28;80414;-50
2024/02/18 13:14:51;;;;;;;6.05;3.70;;;24.90;35.20;;;;;;6168098;28;81001;-50
2024/02/18 13:17:51;;;;;;;5.38;3.22;;;24.90;34.80;;;;;;6165884;28;80096;-49
2024/02/18 13:20:52;;;;;;;5.43;3.40;;;24.90;35.20;;;;;;6163176;28;80456;-60
2024/02/18 13:23:52;;;;;;;7.13;3.30;;;24.90;34.70;;;;;;6181419;28;82165;-58
2024/02/18 13:26:56;;;;;;;7.18;3.58;;;24.90;35.10;;;;;;6173245;28;80527;-61
2024/02/18 13:29:56;;;;;;;7.38;3.55;;;24.80;35.10;;;;;;6183886;28;80747;-62
2024/02/18 13:32:57;;;;;;;9.15;3.28;;;25.00;36.80;;;;;;6171067;28;80717;-61
2024/02/18 13:35:57;;;;;;;6.40;2.83;;;25.00;38.40;;;;;;6184057;28;80427;-61
2024/02/18 13:38:58;;;;;;;10.73;2.97;;;25.00;39.20;;;;;;6183844;28;80535;-60
2024/02/18 13:41:58;;;;;;;8.05;3.20;;;25.10;39.50;;;;;;6182293;28;80758;-58
2024/02/18 13:44:59;;;;;;;8.88;3.03;;;25.10;39.80;;;;;;6183545;28;80926;-57
2024/02/18 13:48:00;;;;;;;5.07;3.05;;;25.20;39.80;;;;;;6183372;28;80365;-56
2024/02/18 13:51:01;;;;;;;8.35;3.63;;;25.20;40.00;;;;;;6170990;28;80494;-57
2024/02/18 13:54:02;;;;;;;6.53;2.95;;;25.20;39.70;;;;;;6182593;28;80551;-58
2024/02/18 13:57:02;;;;;;;4.18;2.42;;;25.30;39.80;;;;;;6184127;28;81551;-59
2024/02/18 14:00:03;;;;;;;6.03;3.08;;;25.30;39.90;;;;;;6172020;28;80609;-58
2024/02/18 14:03:07;;;;;;;7.65;2.70;;;25.40;40.10;;;;;;6168346;28;84678;-59
2024/02/18 14:06:07;;;;;;;5.82;3.20;;;25.40;40.60;;;;;;6171223;28;80428;-54
2024/02/18 14:09:12;;;;;;;6.10;2.95;;;25.40;40.60;;;;;;6148827;28;85185;-57
2024/02/18 14:12:12;;;;;;;3.67;2.40;;;25.50;40.50;;;;;;6172467;28;82130;-58
2024/02/18 14:15:13;;;;;;;11.82;3.03;;;25.50;40.30;;;;;;6176654;28;80499;-62
2024/02/18 14:18:14;;;;;;;9.88;3.03;;;25.50;40.90;;;;;;6182436;28;81050;-69
2024/02/18 14:21:15;;;;;;;10.00;4.47;;;25.50;41.50;;;;;;6169901;28;80844;-60
2024/02/18 14:24:16;;;;;;;9.43;2.95;;;25.50;38.30;;;;;;6169375;28;82542;-65
2024/02/18 14:27:16;;;;;;;6.78;2.90;;;25.50;40.30;;;;;;6155632;28;80924;-68
2024/02/18 14:30:17;;;;;;;4.85;2.95;;;25.40;39.90;;;;;;6174752;28;80094;-65
2024/02/18 14:33:18;;;;;;;8.60;2.83;;;25.40;39.70;;;;;;6168116;28;81050;-55
2024/02/18 14:36:19;;;;;;;7.35;3.30;;;25.50;40.30;;;;;;6167993;28;81491;-59
2024/02/18 14:39:19;;;;;;;4.20;2.65;;;25.50;40.30;;;;;;6142418;28;81905;-57
2024/02/18 14:42:20;;;;;;;4.88;2.65;;;25.50;40.20;;;;;;6162965;28;80614;-61
2024/02/18 14:45:22;;;;;;;6.13;2.92;;;25.50;40.80;;;;;;6162989;28;82188;-58
2024/02/18 14:48:23;;;;;;;4.20;2.70;;;25.50;41.10;;;;;;6173246;28;81537;-57
2024/02/18 14:51:23;;;;;;;8.02;2.65;;;25.40;41.50;;;;;;6166185;28;80385;-64
2024/02/18 14:54:24;;;;;;;10.23;3.10;;;25.40;40.80;;;;;;6171788;28;80256;-62
2024/02/18 14:57:24;;;;;;;6.05;2.85;;;25.40;41.80;;;;;;6174312;28;81192;-60
2024/02/18 15:00:25;;;;;;;6.72;2.60;;;25.40;42.10;;;;;;6161970;28;86523;-63
2024/02/18 15:03:26;;;;;;;5.38;2.53;;;25.40;42.30;;;;;;6163221;28;80845;-64
2024/02/18 15:06:26;;;;;;;4.68;2.55;;;25.50;42.00;;;;;;6167801;28;86599;-63
2024/02/18 15:09:30;;;;;;;5.43;2.92;;;25.40;42.30;;;;;;6161228;28;80393;-62
2024/02/18 15:12:31;;;;;;;48.70;23.92;;;25.40;42.40;;;;;;6160699;28;83016;-61
2024/02/18 15:15:32;;;;;;;44.28;17.35;;;25.40;43.00;;;;;;6156632;28;83071;-59
2024/02/18 15:18:32;;;;;;;61.65;32.15;;;25.40;43.10;;;;;;6160833;28;86573;-62
2024/02/18 15:21:33;;;;;;;61.70;32.65;;;25.30;43.30;;;;;;6165253;28;85360;-63
2024/02/18 15:24:34;;;;;;;87.15;45.00;;;25.40;43.20;;;;;;6162139;28;83506;-63
2024/02/18 15:27:34;;;;;;;102.75;49.65;;;25.30;43.60;;;;;;6156273;28;83142;-63
2024/02/18 15:30:35;;;;;;;93.35;50.75;;;25.30;43.70;;;;;;6157240;28;85829;-55
2024/02/18 15:33:35;;;;;;;95.72;50.60;;;25.20;43.50;;;;;;6160712;28;83798;-54
2024/02/18 15:36:36;;;;;;;90.28;47.13;;;25.20;43.60;;;;;;6154326;28;84762;-54
2024/02/18 15:39:36;;;;;;;89.63;43.25;;;25.20;43.50;;;;;;6156148;28;85037;-54